sensor_id;sensor_type;location;lat;lon;timestamp;P1;durP1;ratioP1;P2;durP2;ratioP2
20832;SDS011;56075;51.264;7.150;2023-04-01T00:00:08;4.10;;;0.80;;
20832;SDS011;56075;51.264;7.150;2023-04-01T00:02:42;3.70;;;0.77;;
20832;SDS011;56075;51.264;7.150;2023-04-01T00:05:14;2.67;;;0.80;;
20832;SDS011;56075;51.264;7.150;2023-04-01T00:07:47;4.47;;;0.77;;
20832;SDS011;56075;51.264;7.150;2023-04-01T00:10:18;3.53;;;0.90;;
20832;SDS011;56075;51.264;7.150;2023-04-01T00:12:49;3.27;;;0.80;;
20832;SDS011;56075;51.264;7.150;2023-04-01T00:15:21;2.67;;;0.80;;
20832;SDS011;56075;51.264;7.150;2023-04-01T00:17:52;1.63;;;0.77;;
20832;SDS011;56075;51.264;7.150;2023-04-01T00:20:24;6.03;;;1.00;;
20832;SDS011;56075;51.264;7.150;2023-04-01T00:22:56;3.67;;;0.80;;
20832;SDS011;56075;51.264;7.150;2023-04-01T00:25:27;2.73;;;0.60;;
20832;SDS011;56075;51.264;7.150;2023-04-01T00:27:59;3.33;;;0.80;;
20832;SDS011;56075;51.264;7.150;2023-04-01T00:30:30;4.87;;;0.80;;
20832;SDS011;56075;51.264;7.150;2023-04-01T00:33:02;2.43;;;0.70;;
20832;SDS011;56075;51.264;7.150;2023-04-01T00:35:34;3.10;;;0.70;;
20832;SDS011;56075;51.264;7.150;2023-04-01T00:38:05;4.00;;;0.87;;
20832;SDS011;56075;51.264;7.150;2023-04-01T00:40:38;2.20;;;0.60;;
20832;SDS011;56075;51.264;7.150;2023-04-01T00:43:15;3.20;;;0.70;;
20832;SDS011;56075;51.264;7.150;2023-04-01T00:45:50;3.07;;;0.70;;
20832;SDS011;56075;51.264;7.150;2023-04-01T00:48:25;2.57;;;0.60;;
20832;SDS011;56075;51.264;7.150;2023-04-01T00:51:02;2.57;;;0.60;;
20832;SDS011;56075;51.264;7.150;2023-04-01T00:53:38;3.87;;;0.70;;
20832;SDS011;56075;51.264;7.150;2023-04-01T00:56:14;2.83;;;0.80;;
20832;SDS011;56075;51.264;7.150;2023-04-01T00:58:49;3.43;;;0.57;;
20832;SDS011;56075;51.264;7.150;2023-04-01T01:01:25;3.03;;;0.60;;
20832;SDS011;56075;51.264;7.150;2023-04-01T01:03:58;1.23;;;0.60;;
20832;SDS011;56075;51.264;7.150;2023-04-01T01:09:21;3.50;;;0.90;;
20832;SDS011;56075;51.264;7.150;2023-04-01T01:18:46;3.27;;;0.80;;
20832;SDS011;56075;51.264;7.150;2023-04-01T01:24:08;2.40;;;0.60;;
20832;SDS011;56075;51.264;7.150;2023-04-01T01:27:01;1.33;;;0.67;;
20832;SDS011;56075;51.264;7.150;2023-04-01T01:32:42;4.67;;;0.80;;
20832;SDS011;56075;51.264;7.150;2023-04-01T01:35:33;1.40;;;0.57;;
20832;SDS011;56075;51.264;7.150;2023-04-01T01:38:18;3.03;;;0.83;;
20832;SDS011;56075;51.264;7.150;2023-04-01T01:40:59;2.63;;;0.60;;
20832;SDS011;56075;51.264;7.150;2023-04-01T01:43:35;1.27;;;0.70;;
20832;SDS011;56075;51.264;7.150;2023-04-01T01:46:11;3.30;;;0.60;;
20832;SDS011;56075;51.264;7.150;2023-04-01T01:48:46;2.53;;;0.70;;
20832;SDS011;56075;51.264;7.150;2023-04-01T01:51:19;1.53;;;0.60;;
20832;SDS011;56075;51.264;7.150;2023-04-01T01:53:52;2.10;;;0.80;;
20832;SDS011;56075;51.264;7.150;2023-04-01T01:56:25;1.43;;;0.60;;
20832;SDS011;56075;51.264;7.150;2023-04-01T01:59:00;4.93;;;0.73;;
20832;SDS011;56075;51.264;7.150;2023-04-01T02:01:39;4.30;;;0.67;;
20832;SDS011;56075;51.264;7.150;2023-04-01T02:04:17;3.10;;;0.70;;
20832;SDS011;56075;51.264;7.150;2023-04-01T02:06:56;5.03;;;0.70;;
20832;SDS011;56075;51.264;7.150;2023-04-01T02:09:32;4.30;;;0.70;;
20832;SDS011;56075;51.264;7.150;2023-04-01T02:12:06;1.53;;;0.73;;
20832;SDS011;56075;51.264;7.150;2023-04-01T02:14:47;2.73;;;0.80;;
20832;SDS011;56075;51.264;7.150;2023-04-01T02:17:24;3.07;;;0.97;;
20832;SDS011;56075;51.264;7.150;2023-04-01T02:20:00;3.93;;;0.60;;
20832;SDS011;56075;51.264;7.150;2023-04-01T02:22:41;2.57;;;0.53;;
20832;SDS011;56075;51.264;7.150;2023-04-01T02:25:18;1.73;;;0.50;;
20832;SDS011;56075;51.264;7.150;2023-04-01T02:27:56;2.50;;;0.60;;
20832;SDS011;56075;51.264;7.150;2023-04-01T02:30:29;1.17;;;0.57;;
20832;SDS011;56075;51.264;7.150;2023-04-01T02:33:05;2.30;;;1.00;;
20832;SDS011;56075;51.264;7.150;2023-04-01T02:35:36;1.40;;;0.80;;
20832;SDS011;56075;51.264;7.150;2023-04-01T02:38:08;2.90;;;0.70;;
20832;SDS011;56075;51.264;7.150;2023-04-01T02:40:41;4.23;;;0.70;;
20832;SDS011;56075;51.264;7.150;2023-04-01T02:43:13;2.40;;;0.60;;
20832;SDS011;56075;51.264;7.150;2023-04-01T02:45:45;2.93;;;0.73;;
20832;SDS011;56075;51.264;7.150;2023-04-01T02:48:16;1.70;;;0.80;;
20832;SDS011;56075;51.264;7.150;2023-04-01T02:50:48;2.37;;;0.80;;
20832;SDS011;56075;51.264;7.150;2023-04-01T02:53:19;1.47;;;0.73;;
20832;SDS011;56075;51.264;7.150;2023-04-01T02:55:50;3.20;;;0.70;;
20832;SDS011;56075;51.264;7.150;2023-04-01T02:58:22;4.33;;;0.60;;
20832;SDS011;56075;51.264;7.150;2023-04-01T03:00:54;1.80;;;0.60;;
20832;SDS011;56075;51.264;7.150;2023-04-01T03:03:26;4.03;;;0.70;;
20832;SDS011;56075;51.264;7.150;2023-04-01T03:05:57;1.47;;;0.70;;
20832;SDS011;56075;51.264;7.150;2023-04-01T03:08:30;1.87;;;0.60;;
20832;SDS011;56075;51.264;7.150;2023-04-01T03:11:01;1.10;;;0.37;;
20832;SDS011;56075;51.264;7.150;2023-04-01T03:13:34;1.63;;;0.60;;
20832;SDS011;56075;51.264;7.150;2023-04-01T03:16:06;0.50;;;0.30;;
20832;SDS011;56075;51.264;7.150;2023-04-01T03:18:39;3.30;;;0.60;;
20832;SDS011;56075;51.264;7.150;2023-04-01T03:21:15;5.10;;;0.67;;
20832;SDS011;56075;51.264;7.150;2023-04-01T03:23:51;1.70;;;0.40;;
20832;SDS011;56075;51.264;7.150;2023-04-01T03:26:22;0.93;;;0.43;;
20832;SDS011;56075;51.264;7.150;2023-04-01T03:28:54;1.53;;;0.40;;
20832;SDS011;56075;51.264;7.150;2023-04-01T03:31:26;3.07;;;0.40;;
20832;SDS011;56075;51.264;7.150;2023-04-01T03:34:00;2.70;;;0.60;;
20832;SDS011;56075;51.264;7.150;2023-04-01T03:36:32;3.33;;;0.60;;
20832;SDS011;56075;51.264;7.150;2023-04-01T03:39:03;0.90;;;0.57;;
20832;SDS011;56075;51.264;7.150;2023-04-01T03:41:44;1.47;;;0.80;;
20832;SDS011;56075;51.264;7.150;2023-04-01T03:44:16;3.03;;;0.90;;
20832;SDS011;56075;51.264;7.150;2023-04-01T03:46:49;4.07;;;1.00;;
20832;SDS011;56075;51.264;7.150;2023-04-01T03:49:21;1.50;;;0.80;;
20832;SDS011;56075;51.264;7.150;2023-04-01T03:51:53;1.73;;;1.10;;
20832;SDS011;56075;51.264;7.150;2023-04-01T03:54:26;2.70;;;0.90;;
20832;SDS011;56075;51.264;7.150;2023-04-01T03:56:58;2.67;;;1.10;;
20832;SDS011;56075;51.264;7.150;2023-04-01T03:59:29;2.70;;;1.17;;
20832;SDS011;56075;51.264;7.150;2023-04-01T04:02:02;1.60;;;1.10;;
20832;SDS011;56075;51.264;7.150;2023-04-01T04:04:34;4.87;;;1.30;;
20832;SDS011;56075;51.264;7.150;2023-04-01T04:07:06;2.17;;;1.40;;
20832;SDS011;56075;51.264;7.150;2023-04-01T04:09:57;5.97;;;1.60;;
20832;SDS011;56075;51.264;7.150;2023-04-01T04:12:29;2.20;;;1.57;;
20832;SDS011;56075;51.264;7.150;2023-04-01T04:15:00;3.90;;;1.43;;
20832;SDS011;56075;51.264;7.150;2023-04-01T04:17:31;2.40;;;1.37;;
20832;SDS011;56075;51.264;7.150;2023-04-01T04:20:03;2.30;;;1.40;;
20832;SDS011;56075;51.264;7.150;2023-04-01T04:22:35;3.87;;;1.50;;
20832;SDS011;56075;51.264;7.150;2023-04-01T04:25:09;3.47;;;1.30;;
20832;SDS011;56075;51.264;7.150;2023-04-01T04:27:41;4.10;;;1.73;;
20832;SDS011;56075;51.264;7.150;2023-04-01T04:30:15;3.03;;;1.60;;
20832;SDS011;56075;51.264;7.150;2023-04-01T04:32:47;4.80;;;1.90;;
20832;SDS011;56075;51.264;7.150;2023-04-01T04:35:18;1.70;;;1.30;;
20832;SDS011;56075;51.264;7.150;2023-04-01T04:37:50;4.03;;;1.50;;
20832;SDS011;56075;51.264;7.150;2023-04-01T04:40:22;3.37;;;1.70;;
20832;SDS011;56075;51.264;7.150;2023-04-01T04:42:54;2.57;;;1.20;;
20832;SDS011;56075;51.264;7.150;2023-04-01T04:45:25;2.20;;;1.30;;
20832;SDS011;56075;51.264;7.150;2023-04-01T04:47:59;1.90;;;1.30;;
20832;SDS011;56075;51.264;7.150;2023-04-01T04:50:31;2.60;;;1.40;;
20832;SDS011;56075;51.264;7.150;2023-04-01T04:53:02;2.70;;;1.40;;
20832;SDS011;56075;51.264;7.150;2023-04-01T04:55:35;2.40;;;1.30;;
20832;SDS011;56075;51.264;7.150;2023-04-01T04:58:28;3.10;;;1.33;;
20832;SDS011;56075;51.264;7.150;2023-04-01T05:01:07;3.53;;;1.70;;
20832;SDS011;56075;51.264;7.150;2023-04-01T05:03:44;2.50;;;1.60;;
20832;SDS011;56075;51.264;7.150;2023-04-01T05:06:16;3.40;;;1.70;;
20832;SDS011;56075;51.264;7.150;2023-04-01T05:08:48;3.60;;;1.70;;
20832;SDS011;56075;51.264;7.150;2023-04-01T05:11:19;1.80;;;1.17;;
20832;SDS011;56075;51.264;7.150;2023-04-01T05:13:53;2.67;;;1.20;;
20832;SDS011;56075;51.264;7.150;2023-04-01T05:16:24;1.30;;;1.10;;
20832;SDS011;56075;51.264;7.150;2023-04-01T05:18:56;3.07;;;1.00;;
20832;SDS011;56075;51.264;7.150;2023-04-01T05:21:27;1.40;;;0.90;;
20832;SDS011;56075;51.264;7.150;2023-04-01T05:24:00;1.60;;;1.00;;
20832;SDS011;56075;51.264;7.150;2023-04-01T05:26:32;1.50;;;1.17;;
20832;SDS011;56075;51.264;7.150;2023-04-01T05:29:04;2.13;;;1.00;;
20832;SDS011;56075;51.264;7.150;2023-04-01T05:31:35;1.83;;;1.20;;
20832;SDS011;56075;51.264;7.150;2023-04-01T05:34:08;2.20;;;1.17;;
20832;SDS011;56075;51.264;7.150;2023-04-01T05:36:39;2.03;;;1.30;;
20832;SDS011;56075;51.264;7.150;2023-04-01T05:39:12;2.83;;;1.27;;
20832;SDS011;56075;51.264;7.150;2023-04-01T05:41:44;3.37;;;1.53;;
20832;SDS011;56075;51.264;7.150;2023-04-01T05:44:15;2.27;;;1.40;;
20832;SDS011;56075;51.264;7.150;2023-04-01T05:46:46;2.37;;;1.40;;
20832;SDS011;56075;51.264;7.150;2023-04-01T05:49:26;1.60;;;1.20;;
20832;SDS011;56075;51.264;7.150;2023-04-01T05:51:57;4.47;;;1.30;;
20832;SDS011;56075;51.264;7.150;2023-04-01T05:54:29;1.70;;;1.00;;
20832;SDS011;56075;51.264;7.150;2023-04-01T05:57:00;2.17;;;1.00;;
20832;SDS011;56075;51.264;7.150;2023-04-01T05:59:31;2.27;;;1.00;;
20832;SDS011;56075;51.264;7.150;2023-04-01T06:02:02;2.60;;;1.00;;
20832;SDS011;56075;51.264;7.150;2023-04-01T06:04:37;3.73;;;1.30;;
20832;SDS011;56075;51.264;7.150;2023-04-01T06:07:13;3.50;;;1.20;;
20832;SDS011;56075;51.264;7.150;2023-04-01T06:09:45;1.50;;;1.17;;
20832;SDS011;56075;51.264;7.150;2023-04-01T06:12:20;2.10;;;1.27;;
20832;SDS011;56075;51.264;7.150;2023-04-01T06:15:34;2.20;;;1.30;;
20832;SDS011;56075;51.264;7.150;2023-04-01T06:24:24;1.77;;;1.10;;
20832;SDS011;56075;51.264;7.150;2023-04-01T06:27:05;1.70;;;1.10;;
20832;SDS011;56075;51.264;7.150;2023-04-01T06:32:45;3.77;;;1.60;;
20832;SDS011;56075;51.264;7.150;2023-04-01T06:35:50;3.63;;;1.50;;
20832;SDS011;56075;51.264;7.150;2023-04-01T06:41:35;2.40;;;1.40;;
20832;SDS011;56075;51.264;7.150;2023-04-01T06:44:16;3.00;;;1.40;;
20832;SDS011;56075;51.264;7.150;2023-04-01T06:56:03;3.97;;;2.10;;
20832;SDS011;56075;51.264;7.150;2023-04-01T06:59:02;2.73;;;1.80;;
20832;SDS011;56075;51.264;7.150;2023-04-01T07:01:47;3.77;;;2.07;;
20832;SDS011;56075;51.264;7.150;2023-04-01T07:04:27;3.97;;;2.00;;
20832;SDS011;56075;51.264;7.150;2023-04-01T07:07:08;4.00;;;1.90;;
20832;SDS011;56075;51.264;7.150;2023-04-01T07:09:54;4.90;;;1.53;;
20832;SDS011;56075;51.264;7.150;2023-04-01T07:12:53;1.83;;;1.33;;
20832;SDS011;56075;51.264;7.150;2023-04-01T07:15:40;2.77;;;1.30;;
20832;SDS011;56075;51.264;7.150;2023-04-01T07:18:16;3.93;;;1.50;;
20832;SDS011;56075;51.264;7.150;2023-04-01T07:20:49;2.70;;;1.40;;
20832;SDS011;56075;51.264;7.150;2023-04-01T07:26:05;2.60;;;1.60;;
20832;SDS011;56075;51.264;7.150;2023-04-01T07:29:13;2.87;;;1.30;;
20832;SDS011;56075;51.264;7.150;2023-04-01T07:32:13;3.20;;;1.40;;
20832;SDS011;56075;51.264;7.150;2023-04-01T07:47:22;2.67;;;1.57;;
20832;SDS011;56075;51.264;7.150;2023-04-01T07:49:53;3.50;;;2.03;;
20832;SDS011;56075;51.264;7.150;2023-04-01T07:52:34;4.47;;;2.03;;
20832;SDS011;56075;51.264;7.150;2023-04-01T07:59:08;4.03;;;2.40;;
20832;SDS011;56075;51.264;7.150;2023-04-01T08:05:06;3.77;;;2.20;;
20832;SDS011;56075;51.264;7.150;2023-04-01T08:07:36;3.33;;;2.00;;
20832;SDS011;56075;51.264;7.150;2023-04-01T08:19:55;4.90;;;2.33;;
20832;SDS011;56075;51.264;7.150;2023-04-01T08:22:49;3.80;;;2.28;;
20832;SDS011;56075;51.264;7.150;2023-04-01T08:25:44;2.97;;;1.80;;
20832;SDS011;56075;51.264;7.150;2023-04-01T08:28:32;4.13;;;1.60;;
20832;SDS011;56075;51.264;7.150;2023-04-01T08:31:33;3.80;;;1.70;;
20832;SDS011;56075;51.264;7.150;2023-04-01T08:34:23;3.23;;;1.80;;
20832;SDS011;56075;51.264;7.150;2023-04-01T08:37:05;3.50;;;2.03;;
20832;SDS011;56075;51.264;7.150;2023-04-01T08:39:48;4.23;;;2.00;;
20832;SDS011;56075;51.264;7.150;2023-04-01T08:56:18;4.10;;;2.10;;
20832;SDS011;56075;51.264;7.150;2023-04-01T09:04:43;3.37;;;1.80;;
20832;SDS011;56075;51.264;7.150;2023-04-01T09:11:11;2.90;;;1.80;;
20832;SDS011;56075;51.264;7.150;2023-04-01T09:26:25;5.10;;;2.60;;
20832;SDS011;56075;51.264;7.150;2023-04-01T09:35:07;5.43;;;2.80;;
20832;SDS011;56075;51.264;7.150;2023-04-01T09:38:00;9.17;;;3.10;;
20832;SDS011;56075;51.264;7.150;2023-04-01T09:44:11;7.03;;;3.73;;
20832;SDS011;56075;51.264;7.150;2023-04-01T09:53:12;10.87;;;4.90;;
20832;SDS011;56075;51.264;7.150;2023-04-01T10:12:21;11.83;;;5.27;;
20832;SDS011;56075;51.264;7.150;2023-04-01T10:14:59;12.43;;;5.27;;
20832;SDS011;56075;51.264;7.150;2023-04-01T10:17:58;9.77;;;4.77;;
20832;SDS011;56075;51.264;7.150;2023-04-01T10:30:31;10.70;;;5.37;;
20832;SDS011;56075;51.264;7.150;2023-04-01T10:42:52;15.10;;;6.57;;
20832;SDS011;56075;51.264;7.150;2023-04-01T10:54:17;12.73;;;5.90;;
20832;SDS011;56075;51.264;7.150;2023-04-01T11:10:07;6.73;;;3.60;;
20832;SDS011;56075;51.264;7.150;2023-04-01T11:24:50;6.63;;;3.25;;
20832;SDS011;56075;51.264;7.150;2023-04-01T11:27:35;6.20;;;3.13;;
20832;SDS011;56075;51.264;7.150;2023-04-01T11:30:22;6.97;;;3.13;;
20832;SDS011;56075;51.264;7.150;2023-04-01T11:36:02;5.53;;;2.70;;
20832;SDS011;56075;51.264;7.150;2023-04-01T11:45:30;6.83;;;3.00;;
20832;SDS011;56075;51.264;7.150;2023-04-01T11:48:37;7.93;;;3.70;;
20832;SDS011;56075;51.264;7.150;2023-04-01T11:54:14;7.93;;;3.47;;
20832;SDS011;56075;51.264;7.150;2023-04-01T11:56:58;8.23;;;4.20;;
20832;SDS011;56075;51.264;7.150;2023-04-01T12:05:47;7.00;;;4.07;;
20832;SDS011;56075;51.264;7.150;2023-04-01T12:11:38;6.50;;;3.47;;
20832;SDS011;56075;51.264;7.150;2023-04-01T12:14:44;6.20;;;3.23;;
20832;SDS011;56075;51.264;7.150;2023-04-01T12:20:21;9.10;;;4.07;;
20832;SDS011;56075;51.264;7.150;2023-04-01T12:32:15;8.97;;;4.40;;
20832;SDS011;56075;51.264;7.150;2023-04-01T12:34:58;8.57;;;4.60;;
20832;SDS011;56075;51.264;7.150;2023-04-01T12:37:41;11.93;;;5.23;;
20832;SDS011;56075;51.264;7.150;2023-04-01T12:43:14;12.83;;;5.53;;
20832;SDS011;56075;51.264;7.150;2023-04-01T12:46:46;12.93;;;5.70;;
20832;SDS011;56075;51.264;7.150;2023-04-01T12:49:10;11.63;;;5.90;;
20832;SDS011;56075;51.264;7.150;2023-04-01T13:02:58;16.27;;;7.33;;
20832;SDS011;56075;51.264;7.150;2023-04-01T13:11:52;17.63;;;7.17;;
20832;SDS011;56075;51.264;7.150;2023-04-01T13:14:38;18.13;;;7.57;;
20832;SDS011;56075;51.264;7.150;2023-04-01T13:17:38;18.97;;;7.80;;
20832;SDS011;56075;51.264;7.150;2023-04-01T13:20:33;15.83;;;6.90;;
20832;SDS011;56075;51.264;7.150;2023-04-01T13:26:06;18.00;;;8.13;;
20832;SDS011;56075;51.264;7.150;2023-04-01T13:31:38;20.67;;;8.40;;
20832;SDS011;56075;51.264;7.150;2023-04-01T13:37:05;18.00;;;8.67;;
20832;SDS011;56075;51.264;7.150;2023-04-01T13:42:46;20.27;;;8.07;;
20832;SDS011;56075;51.264;7.150;2023-04-01T13:45:22;17.47;;;7.90;;
20832;SDS011;56075;51.264;7.150;2023-04-01T13:56:48;16.40;;;7.33;;
20832;SDS011;56075;51.264;7.150;2023-04-01T13:59:39;15.07;;;6.93;;
20832;SDS011;56075;51.264;7.150;2023-04-01T14:05:29;15.57;;;7.27;;
20832;SDS011;56075;51.264;7.150;2023-04-01T14:11:10;12.88;;;6.63;;
20832;SDS011;56075;51.264;7.150;2023-04-01T14:23:05;14.80;;;6.38;;
20832;SDS011;56075;51.264;7.150;2023-04-01T14:26:07;16.30;;;6.17;;
20832;SDS011;56075;51.264;7.150;2023-04-01T14:40:39;14.93;;;6.97;;
20832;SDS011;56075;51.264;7.150;2023-04-01T14:43:31;17.27;;;7.07;;
20832;SDS011;56075;51.264;7.150;2023-04-01T14:46:45;15.15;;;6.47;;
20832;SDS011;56075;51.264;7.150;2023-04-01T14:49:40;15.13;;;7.20;;
20832;SDS011;56075;51.264;7.150;2023-04-01T14:52:30;14.57;;;6.70;;
20832;SDS011;56075;51.264;7.150;2023-04-01T14:56:06;12.07;;;6.10;;
20832;SDS011;56075;51.264;7.150;2023-04-01T14:58:13;12.37;;;5.73;;
20832;SDS011;56075;51.264;7.150;2023-04-01T15:07:21;13.90;;;6.27;;
20832;SDS011;56075;51.264;7.150;2023-04-01T15:27:42;14.40;;;6.60;;
20832;SDS011;56075;51.264;7.150;2023-04-01T15:33:24;14.17;;;6.63;;
20832;SDS011;56075;51.264;7.150;2023-04-01T15:45:23;13.50;;;6.30;;
20832;SDS011;56075;51.264;7.150;2023-04-01T15:54:20;10.38;;;4.78;;
20832;SDS011;56075;51.264;7.150;2023-04-01T16:00:23;10.10;;;5.20;;
20832;SDS011;56075;51.264;7.150;2023-04-01T16:06:11;9.30;;;5.10;;
20832;SDS011;56075;51.264;7.150;2023-04-01T16:11:53;7.73;;;3.80;;
20832;SDS011;56075;51.264;7.150;2023-04-01T16:14:39;11.90;;;4.40;;
20832;SDS011;56075;51.264;7.150;2023-04-01T16:26:15;7.67;;;4.10;;
20832;SDS011;56075;51.264;7.150;2023-04-01T16:29:00;7.70;;;4.33;;
20832;SDS011;56075;51.264;7.150;2023-04-01T16:31:46;10.07;;;4.90;;
20832;SDS011;56075;51.264;7.150;2023-04-01T16:34:44;7.85;;;4.47;;
20832;SDS011;56075;51.264;7.150;2023-04-01T16:37:47;10.97;;;4.93;;
20832;SDS011;56075;51.264;7.150;2023-04-01T16:40:36;10.50;;;4.77;;
20832;SDS011;56075;51.264;7.150;2023-04-01T16:43:16;12.03;;;5.43;;
20832;SDS011;56075;51.264;7.150;2023-04-01T16:46:14;15.10;;;5.47;;
20832;SDS011;56075;51.264;7.150;2023-04-01T16:48:58;10.40;;;5.25;;
20832;SDS011;56075;51.264;7.150;2023-04-01T16:54:29;13.03;;;5.50;;
20832;SDS011;56075;51.264;7.150;2023-04-01T16:57:19;13.13;;;5.83;;
20832;SDS011;56075;51.264;7.150;2023-04-01T17:06:11;11.60;;;5.60;;
20832;SDS011;56075;51.264;7.150;2023-04-01T17:11:56;11.20;;;5.27;;
20832;SDS011;56075;51.264;7.150;2023-04-01T17:14:56;10.73;;;5.20;;
20832;SDS011;56075;51.264;7.150;2023-04-01T17:20:59;13.27;;;5.30;;
20832;SDS011;56075;51.264;7.150;2023-04-01T17:26:24;11.07;;;4.83;;
20832;SDS011;56075;51.264;7.150;2023-04-01T17:29:29;13.37;;;5.70;;
20832;SDS011;56075;51.264;7.150;2023-04-01T17:32:28;13.07;;;5.80;;
20832;SDS011;56075;51.264;7.150;2023-04-01T17:43:40;12.57;;;5.60;;
20832;SDS011;56075;51.264;7.150;2023-04-01T17:49:16;12.17;;;5.50;;
20832;SDS011;56075;51.264;7.150;2023-04-01T17:54:50;11.67;;;5.33;;
20832;SDS011;56075;51.264;7.150;2023-04-01T18:03:04;15.20;;;5.77;;
20832;SDS011;56075;51.264;7.150;2023-04-01T18:06:03;13.00;;;6.17;;
20832;SDS011;56075;51.264;7.150;2023-04-01T18:09:00;13.13;;;5.77;;
20832;SDS011;56075;51.264;7.150;2023-04-01T18:22:41;13.93;;;6.20;;
20832;SDS011;56075;51.264;7.150;2023-04-01T18:25:22;14.07;;;6.27;;
20832;SDS011;56075;51.264;7.150;2023-04-01T18:28:18;14.20;;;6.20;;
20832;SDS011;56075;51.264;7.150;2023-04-01T18:38:54;16.80;;;6.20;;
20832;SDS011;56075;51.264;7.150;2023-04-01T18:41:43;14.03;;;6.60;;
20832;SDS011;56075;51.264;7.150;2023-04-01T18:46:57;14.57;;;5.80;;
20832;SDS011;56075;51.264;7.150;2023-04-01T18:49:48;14.07;;;6.70;;
20832;SDS011;56075;51.264;7.150;2023-04-01T19:07:01;13.83;;;5.43;;
20832;SDS011;56075;51.264;7.150;2023-04-01T19:09:49;13.00;;;5.47;;
20832;SDS011;56075;51.264;7.150;2023-04-01T19:15:22;13.73;;;6.20;;
20832;SDS011;56075;51.264;7.150;2023-04-01T19:24:22;15.97;;;5.90;;
20832;SDS011;56075;51.264;7.150;2023-04-01T19:35:24;13.87;;;6.03;;
20832;SDS011;56075;51.264;7.150;2023-04-01T19:44:11;20.83;;;6.83;;
20832;SDS011;56075;51.264;7.150;2023-04-01T19:52:37;14.90;;;6.40;;
20832;SDS011;56075;51.264;7.150;2023-04-01T19:57:47;16.10;;;6.50;;
20832;SDS011;56075;51.264;7.150;2023-04-01T20:06:15;14.27;;;6.27;;
20832;SDS011;56075;51.264;7.150;2023-04-01T20:14:51;12.40;;;5.73;;
20832;SDS011;56075;51.264;7.150;2023-04-01T20:17:38;13.53;;;5.70;;
20832;SDS011;56075;51.264;7.150;2023-04-01T20:20:18;14.23;;;5.97;;
20832;SDS011;56075;51.264;7.150;2023-04-01T20:25:24;11.60;;;4.80;;
20832;SDS011;56075;51.264;7.150;2023-04-01T20:28:05;14.73;;;6.33;;
20832;SDS011;56075;51.264;7.150;2023-04-01T20:36:46;15.97;;;6.33;;
20832;SDS011;56075;51.264;7.150;2023-04-01T20:50:41;11.90;;;5.00;;
20832;SDS011;56075;51.264;7.150;2023-04-01T20:53:28;12.93;;;5.00;;
20832;SDS011;56075;51.264;7.150;2023-04-01T21:02:12;13.87;;;5.30;;
20832;SDS011;56075;51.264;7.150;2023-04-01T21:07:46;7.23;;;3.20;;
20832;SDS011;56075;51.264;7.150;2023-04-01T21:30:18;9.03;;;3.10;;
20832;SDS011;56075;51.264;7.150;2023-04-01T21:41:42;19.07;;;6.80;;
20832;SDS011;56075;51.264;7.150;2023-04-01T21:44:43;15.23;;;6.40;;
20832;SDS011;56075;51.264;7.150;2023-04-01T22:07:11;17.63;;;6.77;;
20832;SDS011;56075;51.264;7.150;2023-04-01T22:18:13;12.50;;;4.77;;
20832;SDS011;56075;51.264;7.150;2023-04-01T22:21:12;7.90;;;3.77;;
20832;SDS011;56075;51.264;7.150;2023-04-01T22:27:10;5.83;;;2.70;;
20832;SDS011;56075;51.264;7.150;2023-04-01T22:29:41;3.70;;;2.27;;
20832;SDS011;56075;51.264;7.150;2023-04-01T22:32:18;6.33;;;2.47;;
20832;SDS011;56075;51.264;7.150;2023-04-01T22:38:06;3.83;;;1.83;;
20832;SDS011;56075;51.264;7.150;2023-04-01T22:40:47;3.40;;;1.47;;
20832;SDS011;56075;51.264;7.150;2023-04-01T22:43:28;3.00;;;1.70;;
20832;SDS011;56075;51.264;7.150;2023-04-01T22:46:26;3.97;;;1.70;;
20832;SDS011;56075;51.264;7.150;2023-04-01T22:49:25;3.07;;;1.57;;
20832;SDS011;56075;51.264;7.150;2023-04-01T22:52:08;3.70;;;1.90;;
20832;SDS011;56075;51.264;7.150;2023-04-01T22:55:28;5.43;;;1.80;;
20832;SDS011;56075;51.264;7.150;2023-04-01T22:58:13;4.53;;;2.10;;
20832;SDS011;56075;51.264;7.150;2023-04-01T23:00:58;4.23;;;2.07;;
20832;SDS011;56075;51.264;7.150;2023-04-01T23:03:36;5.80;;;2.23;;
20832;SDS011;56075;51.264;7.150;2023-04-01T23:06:19;5.03;;;2.53;;
20832;SDS011;56075;51.264;7.150;2023-04-01T23:11:49;5.53;;;2.27;;
20832;SDS011;56075;51.264;7.150;2023-04-01T23:14:35;3.27;;;1.83;;
20832;SDS011;56075;51.264;7.150;2023-04-01T23:23:41;6.27;;;3.03;;
20832;SDS011;56075;51.264;7.150;2023-04-01T23:26:40;7.30;;;3.33;;
20832;SDS011;56075;51.264;7.150;2023-04-01T23:29:23;6.00;;;2.90;;
20832;SDS011;56075;51.264;7.150;2023-04-01T23:31:59;4.97;;;2.50;;
20832;SDS011;56075;51.264;7.150;2023-04-01T23:34:33;5.80;;;2.57;;
20832;SDS011;56075;51.264;7.150;2023-04-01T23:37:08;5.13;;;2.80;;
20832;SDS011;56075;51.264;7.150;2023-04-01T23:39:43;5.93;;;2.73;;
20832;SDS011;56075;51.264;7.150;2023-04-01T23:42:26;5.73;;;2.70;;
20832;SDS011;56075;51.264;7.150;2023-04-01T23:45:16;4.77;;;2.83;;
20832;SDS011;56075;51.264;7.150;2023-04-01T23:47:51;5.40;;;3.00;;
20832;SDS011;56075;51.264;7.150;2023-04-01T23:50:23;4.97;;;2.60;;
20832;SDS011;56075;51.264;7.150;2023-04-01T23:52:58;4.40;;;2.23;;
20832;SDS011;56075;51.264;7.150;2023-04-01T23:55:33;3.43;;;2.10;;
